Time,TemperatureF,DewpointF,PressureIn,WindDirection,WindDirectionDegrees,WindSpeedMPH,WindSpeedGustMPH,Humidity,HourlyPrecipIn,Conditions,Clouds,dailyrainin,SoftwareType,DateUTC
2013-04-15 00:00:00,41.2,37.3,29.93,East,86,6.0,6.0,86,0.00,,,0.00,Wunderground v.1.15,2013-04-15 04:00:00,
2013-04-15 00:05:00,41.3,37.4,29.93,East,96,6.0,6.0,86,0.00,,,0.00,Wunderground v.1.15,2013-04-15 04:05:00,
2013-04-15 00:10:00,41.5,37.6,29.93,East,95,7.0,7.0,86,0.00,,,0.00,Wunderground v.1.15,2013-04-15 04:10:00,
2013-04-15 00:15:00,41.6,37.7,29.93,East,96,6.0,7.0,86,0.00,,,0.00,Wunderground v.1.15,2013-04-15 04:15:00,
2013-04-15 00:25:00,41.5,37.6,29.92,East,96,6.0,6.0,86,0.00,,,0.00,Wunderground v.1.15,2013-04-15 04:25:00,
2013-04-15 00:30:00,41.6,37.7,29.92,ENE,74,6.0,6.0,86,0.00,,,0.00,Wunderground v.1.15,2013-04-15 04:30:00,
2013-04-15 00:40:00,41.3,37.4,29.91,ENE,68,6.0,6.0,86,0.00,,,0.00,Wunderground v.1.15,2013-04-15 04:40:00,
2013-04-15 00:45:00,41.3,37.4,29.91,East,80,6.0,6.0,86,0.00,,,0.00,Wunderground v.1.15,2013-04-15 04:45:00,
2013-04-15 00:55:00,41.5,37.9,29.91,ENE,73,5.0,7.0,87,0.00,,,0.00,Wunderground v.1.15,2013-04-15 04:55:00,
2013-04-15 01:00:00,41.6,37.7,29.91,East,80,6.0,7.0,86,0.00,,,0.00,Wunderground v.1.15,2013-04-15 05:00:00,
2013-04-15 01:10:00,41.8,37.9,29.91,East,84,7.0,7.0,86,0.00,,,0.00,Wunderground v.1.15,2013-04-15 05:10:00,
2013-04-15 01:15:00,41.8,37.9,29.90,East,85,7.0,7.0,86,0.00,,,0.00,Wunderground v.1.15,2013-04-15 05:15:00,
2013-04-15 01:25:00,41.9,38.0,29.90,East,84,7.0,8.0,86,0.00,,,0.00,Wunderground v.1.15,2013-04-15 05:25:00,
2013-04-15 01:30:00,41.9,38.0,29.90,East,87,7.0,7.0,86,0.00,,,0.00,Wunderground v.1.15,2013-04-15 05:30:00,
2013-04-15 01:40:00,41.7,37.8,29.90,East,92,6.0,6.0,86,0.00,,,0.00,Wunderground v.1.15,2013-04-15 05:40:00,
2013-04-15 01:50:00,41.9,38.0,29.90,ENE,78,6.0,8.0,86,0.00,,,0.00,Wunderground v.1.15,2013-04-15 05:50:00,
2013-04-15 02:00:00,41.8,38.2,29.90,East,83,6.0,7.0,87,0.00,,,0.00,Wunderground v.1.15,2013-04-15 06:00:00,
2013-04-15 02:10:00,42.0,38.4,29.90,East,81,6.0,6.0,87,0.00,,,0.00,Wunderground v.1.15,2013-04-15 06:10:00,
2013-04-15 02:20:00,41.7,38.1,29.90,East,90,5.0,6.0,87,0.00,,,0.00,Wunderground v.1.15,2013-04-15 06:20:00,
2013-04-15 02:25:00,41.9,38.3,29.90,East,90,6.0,7.0,87,0.00,,,0.00,Wunderground v.1.15,2013-04-15 06:25:00,
2013-04-15 02:35:00,42.1,38.5,29.89,East,90,6.0,7.0,87,0.00,,,0.00,Wunderground v.1.15,2013-04-15 06:35:00,
2013-04-15 02:45:00,41.7,38.1,29.89,East,84,5.0,5.0,87,0.00,,,0.00,Wunderground v.1.15,2013-04-15 06:45:00,
2013-04-15 02:55:00,41.4,38.1,29.89,East,86,4.0,5.0,88,0.00,,,0.00,Wunderground v.1.15,2013-04-15 06:55:00,
2013-04-15 03:00:00,41.6,38.3,29.89,East,87,4.0,5.0,88,0.00,,,0.00,Wunderground v.1.15,2013-04-15 07:00:00,
2013-04-15 03:45:00,39.4,35.9,29.89,East,83,2.0,2.0,87,0.00,,,0.00,Wunderground v.1.15,2013-04-15 07:45:00,
2013-04-15 03:50:00,38.9,35.4,29.89,East,83,2.0,2.0,87,0.00,,,0.00,Wunderground v.1.15,2013-04-15 07:50:00,
2013-04-15 03:55:00,38.5,35.3,29.90,East,83,1.0,2.0,88,0.00,,,0.00,Wunderground v.1.15,2013-04-15 07:55:00,
2013-04-15 04:00:00,38.4,35.4,29.90,East,83,0.0,0.0,89,0.00,,,0.00,Wunderground v.1.15,2013-04-15 08:00:00,
2013-04-15 04:05:00,38.4,35.4,29.90,East,83,0.0,0.0,89,0.00,,,0.00,Wunderground v.1.15,2013-04-15 08:05:00,
2013-04-15 04:15:00,38.9,36.2,29.91,East,83,0.0,0.0,90,0.00,,,0.00,Wunderground v.1.15,2013-04-15 08:15:00,
2013-04-15 04:25:00,38.7,36.0,29.91,East,83,1.0,3.0,90,0.00,,,0.00,Wunderground v.1.15,2013-04-15 08:25:00,
2013-04-15 04:35:00,37.9,35.2,29.91,East,82,3.0,3.0,90,0.00,,,0.00,Wunderground v.1.15,2013-04-15 08:35:00,
2013-04-15 04:40:00,37.5,34.8,29.90,East,82,3.0,3.0,90,0.00,,,0.00,Wunderground v.1.15,2013-04-15 08:40:00,
2013-04-15 04:45:00,37.3,34.6,29.91,East,82,2.0,3.0,90,0.00,,,0.00,Wunderground v.1.15,2013-04-15 08:45:00,
2013-04-15 04:54:00,37.9,35.5,29.91,East,82,2.0,2.0,91,0.00,,,0.00,Wunderground v.1.15,2013-04-15 08:54:00,
2013-04-15 05:00:00,37.9,35.5,29.92,East,82,1.0,1.0,91,0.00,,,0.00,Wunderground v.1.15,2013-04-15 09:00:00,
2013-04-15 05:05:00,37.8,35.4,29.92,East,82,0.0,1.0,91,0.00,,,0.00,Wunderground v.1.15,2013-04-15 09:05:00,
2013-04-15 05:14:00,37.6,35.2,29.92,East,82,0.0,0.0,91,0.00,,,0.00,Wunderground v.1.15,2013-04-15 09:14:00,
2013-04-15 05:20:00,37.8,35.4,29.92,East,82,1.0,1.0,91,0.00,,,0.00,Wunderground v.1.15,2013-04-15 09:20:00,
2013-04-15 05:30:00,36.8,34.1,29.93,East,82,2.0,2.0,90,0.00,,,0.00,Wunderground v.1.15,2013-04-15 09:30:00,
2013-04-15 05:40:00,36.2,33.5,29.93,East,81,0.0,2.0,90,0.00,,,0.00,Wunderground v.1.15,2013-04-15 09:40:00,
2013-04-15 05:50:00,35.6,33.0,29.94,NNW,346,2.0,3.0,90,0.00,,,0.00,Wunderground v.1.15,2013-04-15 09:50:00,
2013-04-15 06:00:00,35.5,33.1,29.94,NNW,346,2.0,2.0,91,0.00,,,0.00,Wunderground v.1.15,2013-04-15 10:00:00,
2013-04-15 06:10:00,35.6,33.5,29.95,NNW,346,1.0,2.0,92,0.00,,,0.00,Wunderground v.1.15,2013-04-15 10:10:00,
2013-04-15 06:20:00,35.6,33.5,29.95,NNW,346,1.0,1.0,92,0.00,,,0.00,Wunderground v.1.15,2013-04-15 10:20:00,
2013-04-15 06:25:00,35.9,33.8,29.95,NNW,346,0.0,1.0,92,0.00,,,0.00,Wunderground v.1.15,2013-04-15 10:25:00,
2013-04-15 06:35:00,36.5,34.4,29.95,NNW,348,0.0,2.0,92,0.00,,,0.00,Wunderground v.1.15,2013-04-15 10:35:00,
2013-04-15 06:40:00,36.2,34.1,29.95,NNW,348,1.0,1.0,92,0.00,,,0.00,Wunderground v.1.15,2013-04-15 10:40:00,
2013-04-15 06:49:00,35.7,33.3,29.95,NNW,348,0.0,0.0,91,0.00,,,0.00,Wunderground v.1.15,2013-04-15 10:49:00,
2013-04-15 06:55:00,35.6,33.5,29.95,NNW,348,0.0,0.0,92,0.00,,,0.00,Wunderground v.1.15,2013-04-15 10:55:00,
2013-04-15 07:00:00,35.6,33.5,29.95,NNW,348,0.0,0.0,92,0.00,,,0.00,Wunderground v.1.15,2013-04-15 11:00:00,
2013-04-15 07:09:00,35.5,33.4,29.95,NNW,346,1.0,1.0,92,0.00,,,0.00,Wunderground v.1.15,2013-04-15 11:09:00,
2013-04-15 07:15:00,35.8,33.7,29.95,NNW,346,0.0,1.0,92,0.00,,,0.00,Wunderground v.1.15,2013-04-15 11:15:00,
2013-04-15 07:25:00,36.6,34.5,29.96,NNW,346,0.0,0.0,92,0.00,,,0.00,Wunderground v.1.15,2013-04-15 11:25:00,
2013-04-15 07:35:00,37.5,35.7,29.96,East,94,0.0,0.0,93,0.00,,,0.00,Wunderground v.1.15,2013-04-15 11:35:00,
2013-04-15 07:45:00,39.8,37.9,29.96,East,94,0.0,0.0,93,0.00,,,0.00,Wunderground v.1.15,2013-04-15 11:45:00,
2013-04-15 07:55:00,41.2,39.3,29.96,East,94,0.0,0.0,93,0.00,,,0.00,Wunderground v.1.15,2013-04-15 11:55:00,
2013-04-15 08:00:00,41.8,39.9,29.96,East,94,0.0,0.0,93,0.00,,,0.00,Wunderground v.1.15,2013-04-15 12:00:00,
2013-04-15 08:10:00,43.1,41.2,29.95,East,94,0.0,1.0,93,0.00,,,0.00,Wunderground v.1.15,2013-04-15 12:10:00,
2013-04-15 08:20:00,44.9,43.0,29.94,SSE,152,1.0,1.0,93,0.00,,,0.00,Wunderground v.1.15,2013-04-15 12:20:00,
2013-04-15 08:30:00,46.3,43.8,29.95,SE,144,2.0,4.0,91,0.00,,,0.00,Wunderground v.1.15,2013-04-15 12:30:00,
2013-04-15 08:40:00,47.9,43.9,29.94,SSE,154,3.0,3.0,86,0.00,,,0.00,Wunderground v.1.15,2013-04-15 12:40:00,
2013-04-15 08:49:00,50.1,44.8,29.94,SSE,157,2.0,2.0,82,0.00,,,0.00,Wunderground v.1.15,2013-04-15 12:49:00,
2013-04-15 08:55:00,51.3,45.7,29.95,South,174,3.0,3.0,81,0.00,,,0.00,Wunderground v.1.15,2013-04-15 12:55:00,
2013-04-15 09:00:00,52.0,45.4,29.94,SSE,148,3.0,3.0,78,0.00,,,0.00,Wunderground v.1.15,2013-04-15 13:00:00,
2013-04-15 09:10:00,53.3,45.9,29.94,SSE,152,4.0,4.0,76,0.00,,,0.00,Wunderground v.1.15,2013-04-15 13:10:00,
2013-04-15 09:20:00,54.1,46.7,29.93,South,171,5.0,9.0,76,0.00,,,0.00,Wunderground v.1.15,2013-04-15 13:20:00,
2013-04-15 09:29:00,55.5,47.3,29.93,SSE,158,6.0,6.0,74,0.00,,,0.00,Wunderground v.1.15,2013-04-15 13:29:00,
2013-04-15 09:35:00,56.2,47.3,29.94,South,182,7.0,7.0,72,0.00,,,0.00,Wunderground v.1.15,2013-04-15 13:35:00,
2013-04-15 09:44:00,57.5,48.5,29.94,SSW,198,9.0,13.0,72,0.00,,,0.00,Wunderground v.1.15,2013-04-15 13:44:00,
2013-04-15 09:50:00,58.1,48.7,29.95,SSW,202,11.0,11.0,71,0.00,,,0.00,Wunderground v.1.15,2013-04-15 13:50:00,
2013-04-15 10:00:00,59.5,50.1,29.96,SSW,208,8.0,8.0,71,0.00,,,0.00,Wunderground v.1.15,2013-04-15 14:00:00,
2013-04-15 10:10:00,60.5,50.7,29.96,SSW,213,9.0,9.0,70,0.00,,,0.00,Wunderground v.1.15,2013-04-15 14:10:00,
2013-04-15 10:19:00,60.8,50.6,29.96,SW,219,11.0,15.0,69,0.00,,,0.00,Wunderground v.1.15,2013-04-15 14:19:00,
2013-04-15 10:25:00,60.8,49.8,29.96,SSW,211,13.0,15.0,67,0.00,,,0.00,Wunderground v.1.15,2013-04-15 14:25:00,
2013-04-15 10:35:00,62.0,51.7,29.96,SSW,209,11.0,13.0,69,0.00,,,0.00,Wunderground v.1.15,2013-04-15 14:35:00,
2013-04-15 10:45:00,63.2,52.5,29.96,SSW,206,10.0,10.0,68,0.00,,,0.00,Wunderground v.1.15,2013-04-15 14:45:00,
2013-04-15 10:50:00,63.5,51.9,29.96,WSW,246,10.0,15.0,66,0.00,,,0.00,Wunderground v.1.15,2013-04-15 14:50:00,
2013-04-15 11:00:00,63.7,51.7,29.95,SSW,198,12.0,13.0,65,0.00,,,0.00,Wunderground v.1.15,2013-04-15 15:00:00,
2013-04-15 11:10:00,64.3,52.7,29.95,South,186,12.0,18.0,66,0.00,,,0.00,Wunderground v.1.15,2013-04-15 15:10:00,
2013-04-15 11:19:00,64.4,52.0,29.94,South,186,14.0,20.0,64,0.00,,,0.00,Wunderground v.1.15,2013-04-15 15:19:00,
2013-04-15 11:25:00,64.3,51.4,29.94,South,188,15.0,20.0,63,0.00,,,0.00,Wunderground v.1.15,2013-04-15 15:25:00,
2013-04-15 11:35:00,64.4,51.5,29.94,SSW,195,15.0,15.0,63,0.00,,,0.00,Wunderground v.1.15,2013-04-15 15:35:00,
2013-04-15 11:45:00,64.6,52.1,29.94,SSW,198,15.0,16.0,64,0.00,,,0.00,Wunderground v.1.15,2013-04-15 15:45:00,
2013-04-15 11:55:00,64.8,52.8,29.94,SSW,200,15.0,17.0,65,0.00,,,0.00,Wunderground v.1.15,2013-04-15 15:55:00,
2013-04-15 12:00:00,64.8,52.3,29.94,SSW,212,14.0,14.0,64,0.00,,,0.00,Wunderground v.1.15,2013-04-15 16:00:00,
2013-04-15 12:10:00,65.2,53.6,29.95,SW,224,11.0,11.0,66,0.00,,,0.00,Wunderground v.1.15,2013-04-15 16:10:00,
2013-04-15 12:20:00,64.6,53.0,29.95,SW,231,12.0,14.0,66,0.00,,,0.00,Wunderground v.1.15,2013-04-15 16:20:00,
2013-04-15 12:30:00,64.6,53.0,29.95,South,189,12.0,15.0,66,0.00,,,0.00,Wunderground v.1.15,2013-04-15 16:30:00,
2013-04-15 12:40:00,65.5,53.8,29.94,South,189,14.0,18.0,66,0.00,,,0.00,Wunderground v.1.15,2013-04-15 16:40:00,
2013-04-15 12:49:00,66.1,53.6,29.94,South,182,15.0,16.0,64,0.00,,,0.00,Wunderground v.1.15,2013-04-15 16:49:00,
2013-04-15 12:55:00,65.7,53.2,29.94,SSW,205,14.0,18.0,64,0.00,,,0.00,Wunderground v.1.15,2013-04-15 16:55:00,
2013-04-15 13:00:00,65.9,53.4,29.94,SSW,205,14.0,14.0,64,0.00,,,0.00,Wunderground v.1.15,2013-04-15 17:00:00,
2013-04-15 13:10:00,66.5,53.5,29.93,South,186,13.0,13.0,63,0.00,,,0.00,Wunderground v.1.15,2013-04-15 17:10:00,
2013-04-15 13:19:00,66.8,52.9,29.93,South,180,15.0,15.0,61,0.00,,,0.00,Wunderground v.1.15,2013-04-15 17:19:00,
2013-04-15 13:25:00,67.1,54.5,29.93,South,180,14.0,15.0,64,0.00,,,0.00,Wunderground v.1.15,2013-04-15 17:25:00,
2013-04-15 13:30:00,67.3,53.8,29.92,South,182,14.0,14.0,62,0.00,,,0.00,Wunderground v.1.15,2013-04-15 17:30:00,
2013-04-15 13:34:00,67.7,53.8,29.93,South,184,14.0,18.0,61,0.00,,,0.00,Wunderground v.1.15,2013-04-15 17:34:00,
2013-04-15 13:40:00,67.1,53.2,29.92,South,179,16.0,19.0,61,0.00,,,0.00,Wunderground v.1.15,2013-04-15 17:40:00,
2013-04-15 13:50:00,67.8,53.4,29.93,South,178,15.0,18.0,60,0.00,,,0.00,Wunderground v.1.15,2013-04-15 17:50:00,
2013-04-15 14:00:00,67.6,53.2,29.92,South,190,17.0,17.0,60,0.00,,,0.00,Wunderground v.1.15,2013-04-15 18:00:00,
2013-04-15 14:10:00,67.8,52.5,29.92,South,175,16.0,16.0,58,0.00,,,0.00,Wunderground v.1.15,2013-04-15 18:10:00,
2013-04-15 14:20:00,68.3,53.4,29.92,SSW,203,16.0,16.0,59,0.00,,,0.00,Wunderground v.1.15,2013-04-15 18:20:00,
2013-04-15 14:25:00,67.9,53.0,29.91,SW,214,15.0,18.0,59,0.00,,,0.00,Wunderground v.1.15,2013-04-15 18:25:00,
2013-04-15 14:30:00,67.9,52.6,29.92,South,188,14.0,16.0,58,0.00,,,0.00,Wunderground v.1.15,2013-04-15 18:30:00,
2013-04-15 14:35:00,68.0,54.0,29.92,SSW,199,14.0,16.0,61,0.00,,,0.00,Wunderground v.1.15,2013-04-15 18:35:00,
2013-04-15 14:45:00,67.2,52.4,29.92,South,178,15.0,15.0,59,0.00,,,0.00,Wunderground v.1.15,2013-04-15 18:45:00,
2013-04-15 14:50:00,67.1,53.2,29.91,SSW,192,14.0,14.0,61,0.00,,,0.00,Wunderground v.1.15,2013-04-15 18:50:00,
2013-04-15 15:00:00,68.0,53.6,29.91,South,182,15.0,15.0,60,0.00,,,0.00,Wunderground v.1.15,2013-04-15 19:00:00,
2013-04-15 15:09:00,67.6,52.8,29.91,South,177,16.0,16.0,59,0.00,,,0.00,Wunderground v.1.15,2013-04-15 19:09:00,
2013-04-15 15:15:00,67.7,53.3,29.91,South,175,13.0,16.0,60,0.00,,,0.00,Wunderground v.1.15,2013-04-15 19:15:00,
2013-04-15 15:20:00,67.7,53.3,29.90,South,184,13.0,16.0,60,0.00,,,0.00,Wunderground v.1.15,2013-04-15 19:20:00,
2013-04-15 15:25:00,68.0,53.1,29.91,South,188,15.0,16.0,59,0.00,,,0.00,Wunderground v.1.15,2013-04-15 19:25:00,
2013-04-15 15:35:00,67.4,53.0,29.90,SSW,193,15.0,16.0,60,0.00,,,0.00,Wunderground v.1.15,2013-04-15 19:35:00,
2013-04-15 15:45:00,67.9,53.5,29.90,South,185,12.0,17.0,60,0.00,,,0.00,Wunderground v.1.15,2013-04-15 19:45:00,
2013-04-15 16:00:00,67.6,52.8,29.88,SSW,199,15.0,15.0,59,0.00,,,0.00,Wunderground v.1.15,2013-04-15 20:00:00,
2013-04-15 16:05:00,67.4,53.5,29.88,SSW,200,15.0,15.0,61,0.00,,,0.00,Wunderground v.1.15,2013-04-15 20:05:00,
2013-04-15 16:10:00,67.7,53.8,29.88,SSW,192,14.0,15.0,61,0.00,,,0.00,Wunderground v.1.15,2013-04-15 20:10:00,
2013-04-15 16:15:00,67.6,53.2,29.88,SSE,168,15.0,15.0,60,0.00,,,0.00,Wunderground v.1.15,2013-04-15 20:15:00,
2013-04-15 16:20:00,67.6,52.8,29.88,SSW,196,16.0,17.0,59,0.00,,,0.00,Wunderground v.1.15,2013-04-15 20:20:00,
2013-04-15 16:25:00,67.7,52.9,29.87,South,186,16.0,17.0,59,0.00,,,0.00,Wunderground v.1.15,2013-04-15 20:25:00,
2013-04-15 16:35:00,67.7,53.3,29.87,SSW,202,15.0,16.0,60,0.00,,,0.00,Wunderground v.1.15,2013-04-15 20:35:00,
2013-04-15 16:45:00,67.8,53.4,29.87,South,190,15.0,18.0,60,0.00,,,0.00,Wunderground v.1.15,2013-04-15 20:45:00,
2013-04-15 16:55:00,67.7,53.8,29.87,South,179,13.0,14.0,61,0.00,,,0.00,Wunderground v.1.15,2013-04-15 20:55:00,
2013-04-15 17:05:00,67.8,53.4,29.86,SW,216,13.0,13.0,60,0.00,,,0.00,Wunderground v.1.15,2013-04-15 21:05:00,
2013-04-15 17:15:00,68.1,53.7,29.86,South,184,11.0,13.0,60,0.00,,,0.00,Wunderground v.1.15,2013-04-15 21:15:00,
2013-04-15 17:24:00,67.9,53.5,29.86,South,186,14.0,14.0,60,0.00,,,0.00,Wunderground v.1.15,2013-04-15 21:24:00,
2013-04-15 17:30:00,67.9,53.5,29.86,SSW,198,13.0,14.0,60,0.00,,,0.00,Wunderground v.1.15,2013-04-15 21:30:00,
2013-04-15 17:40:00,67.5,52.7,29.85,South,180,16.0,16.0,59,0.00,,,0.00,Wunderground v.1.15,2013-04-15 21:40:00,
2013-04-15 17:50:00,67.5,52.7,29.86,South,183,16.0,16.0,59,0.00,,,0.00,Wunderground v.1.15,2013-04-15 21:50:00,
2013-04-15 18:00:00,67.4,53.5,29.86,SSW,199,15.0,15.0,61,0.00,,,0.00,Wunderground v.1.15,2013-04-15 22:00:00,
2013-04-15 18:10:00,67.2,54.2,29.87,South,182,14.0,14.0,63,0.00,,,0.00,Wunderground v.1.15,2013-04-15 22:10:00,
2013-04-15 18:15:00,67.0,54.4,29.87,SSW,194,13.0,14.0,64,0.00,,,0.00,Wunderground v.1.15,2013-04-15 22:15:00,
2013-04-15 18:20:00,67.2,53.7,29.87,SSW,198,12.0,12.0,62,0.00,,,0.00,Wunderground v.1.15,2013-04-15 22:20:00,
2013-04-15 18:29:00,67.2,54.2,29.88,SSW,207,10.0,11.0,63,0.00,,,0.00,Wunderground v.1.15,2013-04-15 22:29:00,
2013-04-15 18:35:00,67.5,54.0,29.88,SSW,201,12.0,12.0,62,0.00,,,0.00,Wunderground v.1.15,2013-04-15 22:35:00,
2013-04-15 18:45:00,67.3,53.8,29.89,SSW,202,12.0,16.0,62,0.00,,,0.00,Wunderground v.1.15,2013-04-15 22:45:00,
2013-04-15 18:55:00,67.4,53.9,29.89,South,190,11.0,15.0,62,0.00,,,0.00,Wunderground v.1.15,2013-04-15 22:55:00,
2013-04-15 19:00:00,67.1,54.1,29.89,SSW,209,12.0,13.0,63,0.00,,,0.00,Wunderground v.1.15,2013-04-15 23:00:00,
2013-04-15 19:10:00,66.8,53.8,29.89,SSW,202,11.0,11.0,63,0.00,,,0.00,Wunderground v.1.15,2013-04-15 23:10:00,
2013-04-15 19:20:00,66.6,53.6,29.89,SSW,196,11.0,13.0,63,0.00,,,0.00,Wunderground v.1.15,2013-04-15 23:20:00,
2013-04-15 19:30:00,66.2,53.7,29.88,SSW,196,10.0,12.0,64,0.00,,,0.00,Wunderground v.1.15,2013-04-15 23:30:00,
2013-04-15 19:35:00,66.3,53.3,29.89,South,189,9.0,12.0,63,0.00,,,0.00,Wunderground v.1.15,2013-04-15 23:35:00,
2013-04-15 19:45:00,65.9,53.4,29.89,South,181,9.0,10.0,64,0.00,,,0.00,Wunderground v.1.15,2013-04-15 23:45:00,
2013-04-15 19:55:00,65.8,53.3,29.90,South,182,10.0,16.0,64,0.00,,,0.00,Wunderground v.1.15,2013-04-15 23:55:00,
2013-04-15 20:05:00,65.7,53.2,29.89,South,184,10.0,10.0,64,0.00,,,0.00,Wunderground v.1.15,2013-04-16 00:05:00,
2013-04-15 20:10:00,65.4,53.3,29.89,SSW,194,9.0,10.0,65,0.00,,,0.00,Wunderground v.1.15,2013-04-16 00:10:00,
2013-04-15 20:20:00,64.8,53.2,29.89,South,186,6.0,7.0,66,0.00,,,0.00,Wunderground v.1.15,2013-04-16 00:20:00,
2013-04-15 20:25:00,64.5,52.9,29.89,SSW,192,6.0,6.0,66,0.00,,,0.00,Wunderground v.1.15,2013-04-16 00:25:00,
2013-04-15 20:35:00,64.6,53.0,29.90,SSW,196,7.0,7.0,66,0.00,,,0.00,Wunderground v.1.15,2013-04-16 00:35:00,
2013-04-15 20:45:00,64.1,52.9,29.90,South,190,6.0,10.0,67,0.00,,,0.00,Wunderground v.1.15,2013-04-16 00:45:00,
2013-04-15 20:55:00,64.3,53.1,29.91,SW,223,8.0,8.0,67,0.00,,,0.00,Wunderground v.1.15,2013-04-16 00:55:00,
2013-04-15 21:00:00,64.1,52.9,29.91,SSW,194,8.0,8.0,67,0.00,,,0.00,Wunderground v.1.15,2013-04-16 01:00:00,
2013-04-15 21:10:00,63.6,52.8,29.91,South,180,7.0,8.0,68,0.00,,,0.00,Wunderground v.1.15,2013-04-16 01:10:00,
2013-04-15 21:15:00,63.7,52.9,29.91,South,186,7.0,8.0,68,0.00,,,0.00,Wunderground v.1.15,2013-04-16 01:15:00,
2013-04-15 21:24:00,63.6,52.8,29.92,SSW,194,8.0,11.0,68,0.00,,,0.00,Wunderground v.1.15,2013-04-16 01:24:00,
2013-04-15 21:29:00,63.6,52.8,29.92,South,188,7.0,7.0,68,0.00,,,0.00,Wunderground v.1.15,2013-04-16 01:29:00,
2013-04-15 21:39:00,63.5,53.1,29.92,South,190,7.0,9.0,69,0.00,,,0.00,Wunderground v.1.15,2013-04-16 01:39:00,
2013-04-15 21:48:00,63.6,52.8,29.93,South,188,8.0,9.0,68,0.00,,,0.00,Wunderground v.1.15,2013-04-16 01:48:00,
2013-04-15 21:54:00,63.7,52.9,29.93,SSW,198,8.0,9.0,68,0.00,,,0.00,Wunderground v.1.15,2013-04-16 01:54:00,
2013-04-15 21:59:00,63.5,53.1,29.93,SSW,192,8.0,8.0,69,0.00,,,0.00,Wunderground v.1.15,2013-04-16 01:59:00,
2013-04-15 22:08:00,63.6,53.2,29.93,South,175,9.0,10.0,69,0.00,,,0.00,Wunderground v.1.15,2013-04-16 02:08:00,
2013-04-15 22:14:00,63.4,53.0,29.93,South,190,9.0,10.0,69,0.00,,,0.00,Wunderground v.1.15,2013-04-16 02:14:00,
2013-04-15 22:24:00,63.3,53.0,29.93,SSW,192,8.0,9.0,69,0.00,,,0.00,Wunderground v.1.15,2013-04-16 02:24:00,
2013-04-15 22:34:00,63.2,52.9,29.93,South,191,7.0,8.0,69,0.00,,,0.00,Wunderground v.1.15,2013-04-16 02:34:00,
2013-04-15 22:44:00,63.1,53.2,29.93,South,177,7.0,8.0,70,0.00,,,0.00,Wunderground v.1.15,2013-04-16 02:44:00,
2013-04-15 22:54:00,62.9,53.0,29.92,South,177,6.0,7.0,70,0.00,,,0.00,Wunderground v.1.15,2013-04-16 02:54:00,
2013-04-15 22:59:00,62.8,52.9,29.92,South,174,6.0,6.0,70,0.00,,,0.00,Wunderground v.1.15,2013-04-16 02:59:00,
2013-04-15 23:08:00,62.6,52.7,29.91,South,185,6.0,8.0,70,0.00,,,0.00,Wunderground v.1.15,2013-04-16 03:08:00,
2013-04-15 23:14:00,62.5,53.0,29.91,South,186,7.0,8.0,71,0.00,,,0.00,Wunderground v.1.15,2013-04-16 03:14:00,
2013-04-15 23:24:00,62.2,53.1,29.91,SSW,192,7.0,8.0,72,0.00,,,0.00,Wunderground v.1.15,2013-04-16 03:24:00,
2013-04-15 23:33:00,62.0,52.9,29.91,South,190,8.0,9.0,72,0.00,,,0.00,Wunderground v.1.15,2013-04-16 03:33:00,
2013-04-15 23:39:00,62.0,52.9,29.91,South,180,8.0,10.0,72,0.00,,,0.00,Wunderground v.1.15,2013-04-16 03:39:00,
2013-04-15 23:49:00,61.9,52.8,29.90,South,175,9.0,9.0,72,0.00,,,0.00,Wunderground v.1.15,2013-04-16 03:49:00,
2013-04-15 23:59:00,62.1,53.0,29.90,SSW,193,9.0,9.0,72,0.00,,,0.00,Wunderground v.1.15,2013-04-16 03:59:00,